Time;durP1;ratioP1;P1;durP2;ratioP2;P2;SDS_P1;SDS_P2;PMS_P1;PMS_P2;Temp;Humidity;BMP_temperature;BMP_pressure;BME280_temperature;BME280_humidity;BME280_pressure;Samples;Min_cycle;Max_cycle;Signal;HPM_P1;HPM_P2
2022/12/29 00:01:01;;;;;;;4.38;2.45;;;;;;;10.15;100.00;99652.88;5011693;28;20537;-66
2022/12/29 00:03:26;;;;;;;5.30;2.40;;;;;;;10.19;100.00;99649.16;5013324;28;20547;-64
2022/12/29 00:05:55;;;;;;;2.60;1.98;;;;;;;9.82;100.00;99581.75;5013222;28;20042;-66
2022/12/29 00:08:38;;;;;;;3.72;1.90;;;;;;;9.99;100.00;99599.28;5012204;28;20046;-67
2022/12/29 00:11:05;;;;;;;4.47;2.53;;;;;;;9.92;100.00;99595.28;5013331;28;20034;-66
2022/12/29 00:16:14;;;;;;;1.75;1.65;;;;;;;10.14;100.00;99614.34;5011949;28;20137;-64
2022/12/29 00:18:39;;;;;;;2.92;1.80;;;;;;;9.84;100.00;99553.59;5011560;28;20117;-64
2022/12/29 00:45:55;;;;;;;2.70;1.40;;;;;;;10.22;100.00;99566.63;5012914;28;20048;-64
2022/12/29 00:51:05;;;;;;;1.85;1.20;;;;;;;10.01;100.00;99540.44;5012312;28;20068;-66
2022/12/29 00:53:31;;;;;;;3.30;1.70;;;;;;;10.01;100.00;99518.59;5011539;28;20037;-63
2022/12/29 00:55:56;;;;;;;1.52;1.33;;;;;;;10.09;100.00;99543.56;5011678;28;20205;-63
2022/12/29 00:58:22;;;;;;;2.95;1.50;;;;;;;10.32;100.00;99581.00;5011152;28;20128;-63
2022/12/29 01:00:47;;;;;;;2.53;1.50;;;;;;;10.34;100.00;99581.78;5011859;28;20034;-63
2022/12/29 01:03:12;;;;;;;3.20;1.58;;;;;;;10.31;100.00;99580.16;5012602;28;20045;-64
2022/12/29 01:05:38;;;;;;;3.85;1.60;;;;;;;10.28;100.00;99590.84;5012323;28;20033;-62
2022/12/29 01:08:03;;;;;;;2.15;1.50;;;;;;;9.92;100.00;99533.06;5012246;28;20036;-63
2022/12/29 01:10:29;;;;;;;3.45;1.30;;;;;;;9.80;100.00;99517.91;5011700;28;20034;-64
2022/12/29 01:12:54;;;;;;;2.22;1.25;;;;;;;9.81;100.00;99535.34;5011113;28;20389;-63
2022/12/29 01:15:20;;;;;;;1.70;1.38;;;;;;;10.23;100.00;99602.50;5012257;28;20042;-64
2022/12/29 01:17:45;;;;;;;1.15;0.90;;;;;;;10.25;100.00;99603.28;5012087;28;20038;-63
2022/12/29 01:20:11;;;;;;;1.63;1.00;;;;;;;10.30;100.00;99612.66;5012057;28;20080;-64
2022/12/29 01:22:36;;;;;;;2.03;0.88;;;;;;;10.34;100.00;99597.56;5012369;28;20037;-62
2022/12/29 01:25:02;;;;;;;2.88;1.23;;;;;;;10.37;100.00;99616.66;5012323;28;20041;-64
2022/12/29 01:27:27;;;;;;;1.80;1.10;;;;;;;10.33;100.00;99603.75;5011075;28;20436;-64
2022/12/29 01:29:53;;;;;;;3.83;1.10;;;;;;;10.22;100.00;99592.91;5010821;28;20481;-65
2022/12/29 01:32:18;;;;;;;2.45;1.27;;;;;;;10.33;100.00;99593.25;5010844;28;20026;-63
2022/12/29 01:34:43;;;;;;;2.22;1.15;;;;;;;10.23;100.00;99592.84;5011362;28;20034;-63
2022/12/29 01:37:09;;;;;;;3.42;1.45;;;;;;;10.18;100.00;99568.56;5009749;28;20572;-63
2022/12/29 01:39:34;;;;;;;1.23;1.15;;;;;;;10.03;100.00;99550.91;5012078;28;20030;-65
2022/12/29 01:41:59;;;;;;;3.22;1.30;;;;;;;10.27;100.00;99609.34;5011419;28;20030;-65
2022/12/29 01:44:50;;;;;;;1.70;1.50;;;;;;;10.24;100.00;99570.91;5011501;28;20045;-64
2022/12/29 01:47:41;;;;;;;1.30;1.20;;;;;;;10.22;100.00;99592.91;5012944;28;20076;-64
2022/12/29 01:50:15;;;;;;;2.15;0.90;;;;;;;10.07;100.00;99587.47;4998184;28;20026;-65
2022/12/29 01:52:48;;;;;;;1.75;1.20;;;;;;;10.13;100.00;99592.47;5014641;28;20101;-64
2022/12/29 01:55:13;;;;;;;2.17;1.20;;;;;;;9.85;100.00;99555.31;5014390;28;20033;-65
2022/12/29 01:57:41;;;;;;;3.95;1.23;;;;;;;10.14;100.00;99595.94;5015516;28;20042;-66
2022/12/29 02:00:10;;;;;;;3.53;1.15;;;;;;;10.16;100.00;99618.59;5015963;28;20034;-63
2022/12/29 02:02:35;;;;;;;2.40;1.15;;;;;;;10.14;100.00;99615.19;5015737;28;20465;-63
2022/12/29 02:05:16;;;;;;;3.38;1.25;;;;;;;9.98;100.00;99592.34;5014423;28;20042;-65
2022/12/29 02:07:42;;;;;;;3.28;1.05;;;;;;;10.13;100.00;99608.22;5013946;28;20030;-65
2022/12/29 02:10:07;;;;;;;5.13;1.30;;;;;;;10.14;100.00;99619.59;5014344;28;20072;-65
2022/12/29 02:12:33;;;;;;;8.70;2.15;;;;;;;9.78;100.00;99555.69;5015229;28;20034;-65
2022/12/29 02:15:00;;;;;;;4.22;1.08;;;;;;;9.77;100.00;99554.84;5015298;28;20430;-64
2022/12/29 02:17:26;;;;;;;5.88;1.73;;;;;;;10.12;100.00;99619.66;5013538;28;20507;-63
2022/12/29 02:20:15;;;;;;;5.70;1.65;;;;;;;10.05;100.00;99617.41;5015159;28;20034;-64
2022/12/29 02:23:07;;;;;;;5.85;1.45;;;;;;;10.02;100.00;99622.81;5015137;28;20201;-65
2022/12/29 02:25:49;;;;;;;4.45;1.38;;;;;;;9.46;100.00;99539.69;5015430;28;20026;-65
2022/12/29 02:28:41;;;;;;;8.48;1.50;;;;;;;9.87;100.00;99627.03;5014320;28;20128;-63
2022/12/29 02:31:28;;;;;;;6.43;1.42;;;;;;;9.78;100.00;99618.75;5014404;28;20046;-66
2022/12/29 02:34:13;;;;;;;4.85;1.95;;;;;;;9.69;100.00;99600.81;5014989;28;20509;-63
2022/12/29 02:36:46;;;;;;;7.65;1.25;;;;;;;9.32;100.00;99565.78;5014129;28;20030;-63
2022/12/29 02:39:42;;;;;;;7.10;1.70;;;;;;;9.49;100.00;99615.72;5034374;28;20464;-65
2022/12/29 02:42:11;;;;;;;6.13;1.27;;;;;;;9.46;100.00;99621.13;5017127;28;20124;-63
2022/12/29 02:44:55;;;;;;;5.38;1.80;;;;;;;9.37;100.00;99607.59;5033353;28;20163;-63
2022/12/29 02:47:26;;;;;;;7.80;1.63;;;;;;;9.22;100.00;99605.69;5034225;28;20116;-63
2022/12/29 02:50:10;;;;;;;;;;;;;;;9.23;100.00;99594.22;5016881;28;20050;-63
2022/12/29 02:52:54;;;;;;;9.30;1.73;;;;;;;8.12;100.00;99404.34;5034401;28;19921;-64
2022/12/29 02:55:20;;;;;;;9.32;1.88;;;;;;;9.08;100.00;99569.53;5034632;28;20482;-62
2022/12/29 02:57:45;;;;;;;6.05;2.00;;;;;;;8.97;100.00;99548.19;5034110;28;20034;-63
2022/12/29 03:00:14;;;;;;;15.52;2.83;;;;;;;8.86;100.00;99524.22;5033308;28;20033;-61
2022/12/29 03:03:16;;;;;;;14.57;2.72;;;;;;;9.30;100.00;99596.53;4999941;28;20037;-63
2022/12/29 03:05:53;;;;;;;17.02;2.05;;;;;;;9.35;100.00;99602.41;5033169;28;20435;-62
2022/12/29 03:08:34;;;;;;;13.68;1.85;;;;;;;8.97;100.00;99543.81;5034817;28;20477;-64
2022/12/29 03:11:05;;;;;;;8.15;2.28;;;;;;;9.23;100.00;99618.72;5033856;28;20111;-62
2022/12/29 03:16:44;;;;;;;10.48;2.42;;;;;;;9.03;100.00;99582.91;5033825;28;20043;-63
2022/12/29 03:19:47;;;;;;;12.80;2.55;;;;;;;9.08;100.00;99585.28;5015742;28;20033;-61
2022/12/29 03:22:27;;;;;;;11.38;2.22;;;;;;;9.03;100.00;99579.41;4958667;28;20042;-61
2022/12/29 03:24:56;;;;;;;16.70;3.50;;;;;;;8.96;100.00;99565.72;4976648;28;20034;-60
2022/12/29 03:27:27;;;;;;;12.32;2.35;;;;;;;9.06;100.00;99568.78;4959570;28;20076;-62
2022/12/29 03:29:54;;;;;;;;;;;;;;;9.10;100.00;99593.13;4975987;28;20053;-61
2022/12/29 03:32:22;;;;;;;7.65;2.20;;;;;;;9.07;100.00;99551.25;4975226;28;20012;-62
2022/12/29 03:34:49;;;;;;;10.43;1.90;;;;;;;9.14;100.00;99558.75;4975477;28;20097;-62
2022/12/29 03:37:17;;;;;;;8.02;1.83;;;;;;;8.76;100.00;99508.06;4975072;28;20497;-63
2022/12/29 03:39:43;;;;;;;7.78;1.88;;;;;;;9.15;100.00;99589.34;4959200;28;20433;-62
2022/12/29 03:42:12;;;;;;;11.70;2.88;;;;;;;8.73;100.00;99502.09;4975695;28;20052;-61
2022/12/29 03:44:40;;;;;;;7.93;1.80;;;;;;;8.86;100.00;99509.34;4991597;28;20409;-62
2022/12/29 03:47:06;;;;;;;12.68;2.17;;;;;;;9.21;100.00;99565.44;4991617;28;20417;-62
2022/12/29 03:49:32;;;;;;;9.07;2.15;;;;;;;9.37;100.00;99607.59;4991284;28;20440;-62
2022/12/29 03:51:57;;;;;;;5.65;1.63;;;;;;;9.36;100.00;99588.34;4975249;28;20030;-62
2022/12/29 03:54:23;;;;;;;7.38;1.95;;;;;;;9.43;100.00;99594.16;5013595;28;20137;-64
2022/12/29 03:56:48;;;;;;;6.90;1.63;;;;;;;8.99;100.00;99528.81;5013111;28;20129;-62
2022/12/29 03:59:13;;;;;;;7.80;2.45;;;;;;;9.26;100.00;99571.31;5013628;28;20030;-61
2022/12/29 04:01:39;;;;;;;9.32;2.00;;;;;;;8.96;100.00;99526.34;5013164;28;20049;-62
2022/12/29 04:04:04;;;;;;;10.35;3.05;;;;;;;8.98;100.00;99534.16;5012252;28;20034;-66
2022/12/29 04:06:29;;;;;;;9.20;1.80;;;;;;;9.42;100.00;99609.09;5013257;28;20036;-61
2022/12/29 04:08:55;;;;;;;11.70;1.95;;;;;;;9.38;100.00;99625.91;5012889;28;20366;-62
2022/12/29 04:11:21;;;;;;;8.60;2.08;;;;;;;9.31;100.00;99616.59;5013012;28;20046;-62
2022/12/29 04:13:46;;;;;;;14.27;2.20;;;;;;;9.31;100.00;99624.47;5013197;28;20046;-62
2022/12/29 04:16:12;;;;;;;14.45;2.72;;;;;;;8.88;100.00;99551.25;5013032;28;20030;-62
2022/12/29 04:18:37;;;;;;;11.80;2.58;;;;;;;9.22;100.00;99624.06;5011997;28;20092;-63
2022/12/29 04:21:03;;;;;;;12.15;2.88;;;;;;;9.20;100.00;99632.00;5013077;28;20042;-62
2022/12/29 04:23:30;;;;;;;15.82;2.97;;;;;;;8.74;100.00;99544.00;5011787;28;20038;-63
2022/12/29 04:25:55;;;;;;;14.35;2.92;;;;;;;9.07;100.00;99607.25;5013349;28;20095;-63
2022/12/29 04:28:21;;;;;;;15.57;2.90;;;;;;;9.06;100.00;99618.66;5012894;28;20537;-63
2022/12/29 04:30:46;;;;;;;12.88;3.17;;;;;;;8.99;100.00;99604.09;5012800;28;20127;-65
2022/12/29 04:33:12;;;;;;;15.52;2.60;;;;;;;8.77;100.00;99554.38;4995437;28;20048;-62
2022/12/29 04:35:37;;;;;;;11.52;2.92;;;;;;;8.80;100.00;99550.75;5012610;28;20029;-62
2022/12/29 04:38:03;;;;;;;13.18;2.35;;;;;;;9.07;100.00;99607.25;5011261;28;20050;-64
2022/12/29 04:40:28;;;;;;;7.22;2.10;;;;;;;8.93;100.00;99604.38;5012724;28;20038;-65
2022/12/29 04:42:54;;;;;;;13.63;2.20;;;;;;;8.86;100.00;99608.19;5012649;28;20038;-62
2022/12/29 04:45:19;;;;;;;6.78;2.10;;;;;;;8.78;100.00;99589.34;5012419;28;20052;-62
2022/12/29 04:47:44;;;;;;;9.25;2.20;;;;;;;8.48;100.00;99576.66;5012487;28;20044;-65
2022/12/29 04:50:10;;;;;;;10.63;2.53;;;;;;;8.42;100.00;99562.94;5012404;28;20030;-63
2022/12/29 04:52:36;;;;;;;13.32;2.70;;;;;;;8.31;100.00;99558.19;5012181;28;20062;-64
2022/12/29 04:55:01;;;;;;;10.63;2.38;;;;;;;8.67;100.00;99628.31;5012435;28;20034;-65
2022/12/29 04:57:27;;;;;;;12.38;2.65;;;;;;;8.72;100.00;99621.09;5012565;28;20477;-63
2022/12/29 04:59:52;;;;;;;12.27;2.17;;;;;;;8.68;100.00;99617.72;5011849;28;20034;-63
2022/12/29 05:02:17;;;;;;;14.68;2.92;;;;;;;8.65;100.00;99617.88;5011197;28;20042;-63
2022/12/29 05:04:43;;;;;;;14.95;3.30;;;;;;;8.60;100.00;99627.72;5012389;28;20049;-64
2022/12/29 05:07:08;;;;;;;9.35;3.03;;;;;;;8.69;100.00;99627.31;5012347;28;20547;-63
2022/12/29 05:09:33;;;;;;;11.13;2.33;;;;;;;8.71;100.00;99638.59;5012141;28;20077;-64
2022/12/29 05:11:59;;;;;;;14.73;2.75;;;;;;;8.77;100.00;99640.94;5012824;28;20041;-63
2022/12/29 05:14:24;;;;;;;14.82;2.63;;;;;;;8.72;100.00;99629.81;5012507;28;20060;-64
2022/12/29 05:16:50;;;;;;;10.48;2.60;;;;;;;8.79;100.00;99640.88;5010419;28;20048;-62
2022/12/29 05:19:16;;;;;;;13.18;3.20;;;;;;;8.90;100.00;99651.75;5012070;28;20489;-62
2022/12/29 05:21:42;;;;;;;16.08;3.47;;;;;;;8.51;100.00;99580.91;5011998;28;20034;-64
2022/12/29 05:24:07;;;;;;;15.63;2.90;;;;;;;8.90;100.00;99642.09;5018739;28;20041;-63
2022/12/29 05:26:33;;;;;;;10.80;3.00;;;;;;;8.90;100.00;99638.66;5016979;28;20488;-63
2022/12/29 05:28:59;;;;;;;11.85;2.75;;;;;;;8.83;100.00;99632.81;5018833;28;20033;-63
2022/12/29 05:31:25;;;;;;;13.63;2.70;;;;;;;8.88;100.00;99635.22;5017306;28;20062;-63
2022/12/29 05:33:50;;;;;;;15.25;3.47;;;;;;;8.78;100.00;99645.28;5017441;28;20448;-64
2022/12/29 05:36:15;;;;;;;16.23;3.35;;;;;;;8.63;100.00;99613.63;5017067;28;20049;-63
2022/12/29 05:38:41;;;;;;;14.30;3.63;;;;;;;8.87;100.00;99657.16;5035959;28;20408;-64
2022/12/29 05:41:06;;;;;;;13.70;3.78;;;;;;;8.70;100.00;99631.63;5038537;28;20181;-64
2022/12/29 05:43:31;;;;;;;15.02;3.25;;;;;;;8.87;100.00;99657.16;5037775;28;20041;-64
2022/12/29 05:45:57;;;;;;;15.18;2.85;;;;;;;8.86;100.00;99664.16;5038305;28;20056;-64
2022/12/29 05:48:22;;;;;;;14.27;2.78;;;;;;;8.81;100.00;99666.16;5004146;28;20061;-64
2022/12/29 05:50:49;;;;;;;14.82;3.05;;;;;;;8.83;100.00;99689.69;5038011;28;20045;-64
2022/12/29 05:53:14;;;;;;;20.10;3.40;;;;;;;7.96;100.00;99524.72;5003796;28;20495;-65
2022/12/29 05:55:40;;;;;;;18.42;3.78;;;;;;;8.38;100.00;99605.94;5036793;28;20037;-66
2022/12/29 05:58:05;;;;;;;22.98;4.45;;;;;;;8.26;100.00;99611.69;5038175;28;20485;-65
2022/12/29 06:00:31;;;;;;;21.38;3.65;;;;;;;8.52;100.00;99670.94;5038106;28;20595;-64
2022/12/29 06:02:56;;;;;;;19.23;3.30;;;;;;;8.40;100.00;99653.94;5020351;28;20037;-64
2022/12/29 06:05:21;;;;;;;19.05;3.33;;;;;;;8.55;100.00;99676.91;5038035;28;20468;-64
2022/12/29 06:07:47;;;;;;;15.40;3.17;;;;;;;8.52;100.00;99676.19;5037807;28;20033;-63
2022/12/29 06:10:12;;;;;;;19.45;3.90;;;;;;;8.28;100.00;99659.69;5038169;28;20488;-62
2022/12/29 06:12:37;;;;;;;16.75;3.08;;;;;;;8.03;100.00;99615.25;5038094;28;20618;-64
2022/12/29 06:15:03;;;;;;;13.38;3.40;;;;;;;8.39;100.00;99684.56;5038077;28;20047;-64
2022/12/29 06:17:29;;;;;;;11.70;3.17;;;;;;;8.33;100.00;99673.47;5037759;28;20496;-63
2022/12/29 06:19:54;;;;;;;18.42;3.35;;;;;;;8.35;100.00;99663.75;5037926;28;20099;-64
2022/12/29 06:22:19;;;;;;;18.10;4.50;;;;;;;8.21;100.00;99648.56;5037598;28;20068;-65
2022/12/29 06:24:45;;;;;;;16.98;4.00;;;;;;;8.42;100.00;99688.81;5037384;28;20045;-64
2022/12/29 06:27:10;;;;;;;23.10;4.65;;;;;;;7.92;100.00;99609.63;5037852;28;20034;-64
2022/12/29 06:29:36;;;;;;;21.50;3.33;;;;;;;8.05;100.00;99634.41;5038133;28;20029;-63
2022/12/29 06:32:03;;;;;;;16.88;3.47;;;;;;;8.15;100.00;99647.97;5037901;28;20041;-63
2022/12/29 06:34:29;;;;;;;18.80;3.72;;;;;;;7.92;100.00;99614.84;5016522;28;20033;-63
2022/12/29 06:36:54;;;;;;;26.17;5.22;;;;;;;8.34;100.00;99675.19;5034232;28;20183;-67
2022/12/29 06:39:20;;;;;;;16.25;3.58;;;;;;;8.42;100.00;99694.91;5017249;28;20049;-63
2022/12/29 06:41:45;;;;;;;17.88;3.60;;;;;;;8.47;100.00;99692.09;5034707;28;20045;-63
2022/12/29 06:44:10;;;;;;;22.98;4.43;;;;;;;7.90;100.00;99607.06;5000458;28;20041;-64
2022/12/29 06:46:35;;;;;;;21.48;4.55;;;;;;;8.36;100.00;99683.81;5034335;28;20033;-61
2022/12/29 06:49:01;;;;;;;25.17;4.55;;;;;;;8.09;100.00;99648.22;5034866;28;20321;-64
2022/12/29 06:51:26;;;;;;;15.43;3.60;;;;;;;7.93;100.00;99640.16;5034099;28;20083;-62
2022/12/29 06:53:52;;;;;;;24.38;4.65;;;;;;;8.26;100.00;99698.22;5034671;28;20132;-61
2022/12/29 06:56:17;;;;;;;20.08;3.97;;;;;;;7.84;100.00;99624.78;5034401;28;20396;-64
2022/12/29 06:58:42;;;;;;;20.05;3.97;;;;;;;8.10;100.00;99682.25;5033241;28;20091;-64
2022/12/29 07:01:07;;;;;;;18.00;3.55;;;;;;;7.98;100.00;99664.38;5034422;28;20033;-63
2022/12/29 07:03:33;;;;;;;17.92;3.63;;;;;;;8.27;100.00;99711.28;5034201;28;20125;-62
2022/12/29 07:05:58;;;;;;;15.20;3.17;;;;;;;8.23;100.00;99732.41;5034138;28;20033;-63
2022/12/29 07:08:24;;;;;;;17.05;3.38;;;;;;;8.34;100.00;99714.50;5034102;28;20033;-63
2022/12/29 07:10:49;;;;;;;16.83;3.28;;;;;;;8.43;100.00;99724.63;5034025;28;20071;-66
2022/12/29 07:13:15;;;;;;;14.82;3.67;;;;;;;7.69;100.00;99586.13;5032976;28;20037;-64
2022/12/29 07:15:40;;;;;;;14.80;2.92;;;;;;;8.18;100.00;99684.53;5033615;28;20480;-63
2022/12/29 07:18:05;;;;;;;11.82;2.63;;;;;;;8.48;100.00;99728.75;5033627;28;20041;-64
2022/12/29 07:20:31;;;;;;;15.38;3.22;;;;;;;8.59;100.00;99709.06;5033572;28;20029;-64
2022/12/29 07:22:57;;;;;;;15.20;2.75;;;;;;;8.65;100.00;99729.81;5033192;28;20021;-65
2022/12/29 07:25:22;;;;;;;12.20;2.85;;;;;;;8.65;100.00;99727.19;5016214;28;20046;-64
2022/12/29 07:27:48;;;;;;;10.63;2.35;;;;;;;8.29;100.00;99664.03;5033942;28;20432;-64
2022/12/29 07:30:14;;;;;;;17.15;3.08;;;;;;;8.65;100.00;99724.56;5033153;28;20112;-64
2022/12/29 07:32:40;;;;;;;21.73;3.28;;;;;;;8.61;100.00;99715.97;5015837;28;20519;-63
2022/12/29 07:35:06;;;;;;;18.48;3.15;;;;;;;8.20;100.00;99646.03;5033933;28;20052;-63
2022/12/29 07:37:31;;;;;;;18.25;3.70;;;;;;;8.28;100.00;99642.22;5033161;28;20148;-62
2022/12/29 07:39:56;;;;;;;15.05;3.00;;;;;;;8.31;100.00;99649.94;5032783;28;20112;-64
2022/12/29 07:42:22;;;;;;;17.25;3.30;;;;;;;8.80;100.00;99714.28;5033419;28;20373;-63
2022/12/29 07:44:47;;;;;;;15.75;3.00;;;;;;;8.74;100.00;99709.28;5032986;28;20038;-65
2022/12/29 07:47:12;;;;;;;16.58;3.92;;;;;;;8.45;100.00;99665.09;5015856;28;20462;-63
2022/12/29 07:49:38;;;;;;;11.93;3.63;;;;;;;8.04;100.00;99579.44;5033001;28;20037;-64
2022/12/29 07:52:03;;;;;;;15.55;3.85;;;;;;;8.96;100.00;99736.31;5033057;28;20040;-63
2022/12/29 07:54:29;;;;;;;19.52;3.40;;;;;;;8.53;100.00;99655.13;5033079;28;20029;-63
2022/12/29 07:56:54;;;;;;;15.20;2.75;;;;;;;8.81;100.00;99716.00;5033054;28;20095;-62
2022/12/29 07:59:20;;;;;;;21.20;4.28;;;;;;;8.40;100.00;99643.47;5033065;28;20037;-63
2022/12/29 08:01:45;;;;;;;15.40;3.20;;;;;;;8.89;100.00;99736.66;5033021;28;20353;-65
2022/12/29 08:04:10;;;;;;;17.40;3.22;;;;;;;8.91;100.00;99730.41;5032439;28;20120;-64
2022/12/29 08:06:37;;;;;;;20.20;3.85;;;;;;;8.85;100.00;99737.69;5032525;28;20037;-64
2022/12/29 08:09:03;;;;;;;22.00;4.07;;;;;;;8.75;100.00;99724.13;5032944;28;20029;-64
2022/12/29 08:11:28;;;;;;;15.65;3.63;;;;;;;8.76;100.00;99738.94;5014899;28;20465;-66
2022/12/29 08:13:53;;;;;;;18.42;3.97;;;;;;;8.71;100.00;99740.03;5032813;28;20489;-63
2022/12/29 08:16:19;;;;;;;18.02;3.75;;;;;;;8.56;100.00;99724.94;5032537;28;20045;-63
2022/12/29 08:18:44;;;;;;;22.15;4.03;;;;;;;8.49;100.00;99725.19;5030152;28;20095;-66
2022/12/29 08:21:10;;;;;;;17.10;3.55;;;;;;;8.54;100.00;99739.91;5031238;28;20041;-65
2022/12/29 08:23:35;;;;;;;13.32;2.83;;;;;;;7.82;100.00;99637.13;5014716;28;20046;-63
2022/12/29 08:26:05;;;;;;;19.65;3.58;;;;;;;8.30;100.00;99740.00;5015022;28;20373;-63
2022/12/29 08:28:31;;;;;;;19.98;4.05;;;;;;;8.19;100.00;99730.81;5032545;28;20037;-64
2022/12/29 08:30:58;;;;;;;26.05;4.70;;;;;;;8.15;100.00;99743.19;5027606;28;20038;-63
2022/12/29 08:33:24;;;;;;;18.55;3.47;;;;;;;7.86;100.00;99689.31;4994367;28;20452;-65
2022/12/29 08:35:49;;;;;;;12.77;3.25;;;;;;;8.20;100.00;99762.19;4994124;28;20034;-64
2022/12/29 08:38:15;;;;;;;17.92;3.35;;;;;;;7.92;100.00;99711.78;4993791;28;20408;-65
2022/12/29 08:40:40;;;;;;;25.42;4.32;;;;;;;7.81;100.00;99679.94;5010168;28;20030;-65
2022/12/29 08:43:05;;;;;;;15.48;3.63;;;;;;;8.19;100.00;99757.03;5012482;28;20172;-64
2022/12/29 08:45:31;;;;;;;25.27;4.97;;;;;;;8.17;100.00;99733.47;5011225;28;20033;-65
2022/12/29 08:47:56;;;;;;;17.33;3.72;;;;;;;7.71;100.00;99661.09;4995141;28;20046;-66
2022/12/29 08:50:22;;;;;;;15.45;3.83;;;;;;;7.71;100.00;99692.53;5012048;28;20042;-65
2022/12/29 08:52:47;;;;;;;18.30;4.18;;;;;;;7.75;100.00;99693.28;4995031;28;20048;-64
2022/12/29 08:55:12;;;;;;;22.55;4.38;;;;;;;8.19;100.00;99781.47;5012422;28;20125;-64
2022/12/29 08:57:38;;;;;;;15.05;3.40;;;;;;;7.62;100.00;99690.25;5011555;28;20080;-63
2022/12/29 09:00:04;;;;;;;18.10;3.65;;;;;;;8.14;100.00;99772.94;5012111;28;20069;-62
2022/12/29 09:02:29;;;;;;;18.23;3.45;;;;;;;8.05;100.00;99761.97;5011879;28;20096;-63
2022/12/29 09:04:57;;;;;;;16.38;3.92;;;;;;;8.06;100.00;99788.09;4993516;28;20037;-63
2022/12/29 09:07:23;;;;;;;22.63;5.75;;;;;;;8.16;100.00;99799.09;4994647;28;20481;-64
2022/12/29 09:09:48;;;;;;;20.55;3.72;;;;;;;8.08;100.00;99803.78;5012108;28;20084;-63
2022/12/29 09:12:13;;;;;;;23.70;4.40;;;;;;;7.85;100.00;99770.59;4994424;28;20473;-63
2022/12/29 09:14:39;;;;;;;19.23;3.70;;;;;;;7.73;100.00;99739.63;5011183;28;20084;-65
2022/12/29 09:19:48;;;;;;;16.48;3.00;;;;;;;7.77;100.00;99747.31;4994594;28;20053;-62
2022/12/29 09:22:13;;;;;;;14.60;3.40;;;;;;;7.81;100.00;99746.28;4992535;28;20031;-62
2022/12/29 09:24:39;;;;;;;15.80;3.80;;;;;;;8.13;100.00;99796.59;5010709;28;20087;-64
2022/12/29 09:27:04;;;;;;;20.92;4.53;;;;;;;8.14;100.00;99804.41;5011834;28;20458;-62
2022/12/29 09:29:29;;;;;;;17.58;3.67;;;;;;;7.93;100.00;99781.63;5011508;28;20409;-64
2022/12/29 09:31:55;;;;;;;21.63;4.30;;;;;;;8.33;100.00;99862.25;5011627;28;20080;-64
2022/12/29 09:34:20;;;;;;;21.63;4.15;;;;;;;8.38;100.00;99855.91;5012091;28;20085;-65
2022/12/29 09:36:45;;;;;;;27.45;4.22;;;;;;;8.28;100.00;99841.47;5011870;28;20057;-64
2022/12/29 09:39:12;;;;;;;23.80;4.53;;;;;;;7.84;100.00;99759.25;5011153;28;20050;-64
2022/12/29 09:41:56;;;;;;;27.92;4.53;;;;;;;8.24;100.00;99831.97;4993639;28;20504;-63
2022/12/29 09:44:48;;;;;;;23.48;5.50;;;;;;;8.57;100.00;99866.53;5011603;28;20446;-64
2022/12/29 09:47:16;;;;;;;24.75;4.40;;;;;;;8.54;100.00;99855.31;5008499;28;20046;-64
2022/12/29 09:49:45;;;;;;;24.88;4.65;;;;;;;8.07;100.00;99768.84;4977663;28;20068;-64
2022/12/29 09:52:14;;;;;;;23.13;4.57;;;;;;;8.57;100.00;99853.41;4994345;28;20041;-62
2022/12/29 09:54:53;;;;;;;19.42;4.80;;;;;;;8.75;100.00;99891.19;4994015;28;20413;-63
2022/12/29 09:57:26;;;;;;;24.98;5.25;;;;;;;8.69;100.00;99870.44;4993563;28;20081;-63
2022/12/29 09:59:57;;;;;;;25.40;5.57;;;;;;;8.75;100.00;99889.41;4993949;28;20445;-62
2022/12/29 10:02:31;;;;;;;25.83;4.80;;;;;;;8.86;100.00;99937.06;5011403;28;20033;-62
2022/12/29 10:04:57;;;;;;;31.75;6.10;;;;;;;8.39;100.00;99802.56;5011424;28;20431;-61
2022/12/29 10:07:27;;;;;;;24.42;5.43;;;;;;;8.93;100.00;99928.03;5010930;28;20125;-63
2022/12/29 10:10:11;;;;;;;23.02;5.18;;;;;;;9.01;100.00;99917.25;5014831;28;20034;-62
2022/12/29 10:13:00;;;;;;;21.33;5.30;;;;;;;9.06;100.00;99917.91;5014890;28;20034;-62
2022/12/29 10:15:40;;;;;;;27.40;5.45;;;;;;;9.04;100.00;99928.47;4997132;28;20035;-62
2022/12/29 10:18:21;;;;;;;26.85;5.85;;;;;;;9.12;100.00;99938.66;4968855;28;20030;-63
2022/12/29 10:21:05;;;;;;;27.95;5.25;;;;;;;9.27;100.00;99937.16;4995330;28;20093;-62
2022/12/29 10:23:42;;;;;;;27.40;6.25;;;;;;;8.81;100.00;99865.56;4994460;28;20062;-62
2022/12/29 10:26:15;;;;;;;25.73;5.75;;;;;;;8.77;100.00;99878.84;4984852;28;20501;-63
2022/12/29 10:28:43;;;;;;;25.20;5.80;;;;;;;8.75;100.00;99899.91;4995460;28;20037;-63
2022/12/29 10:31:27;;;;;;;31.58;6.20;;;;;;;8.91;100.00;99932.50;5013822;28;20037;-62
2022/12/29 10:33:58;;;;;;;23.75;5.97;;;;;;;9.07;100.00;99969.50;4995922;28;20456;-63
2022/12/29 10:36:42;;;;;;;27.52;6.68;;;;;;;9.18;100.00;99979.56;4997032;28;20033;-63
2022/12/29 10:39:14;;;;;;;26.40;5.53;;;;;;;9.38;100.00;99969.94;4996293;28;20054;-62
2022/12/29 10:41:53;;;;;;;27.58;6.97;;;;;;;9.63;100.00;99997.84;5014589;28;20033;-66
2022/12/29 10:44:19;;;;;;;24.17;5.03;;;;;;;9.24;100.00;99901.41;4993153;28;20080;-62
2022/12/29 10:46:54;;;;;;;20.98;5.35;;;;;;;9.66;100.00;99953.88;4980225;28;20068;-62
2022/12/29 10:49:19;;;;;;;23.85;4.82;;;;;;;9.79;100.00;99959.47;4996979;28;20037;-63
2022/12/29 10:51:46;;;;;;;26.95;4.75;;;;;;;9.73;100.00;99963.22;5014836;28;20137;-64
2022/12/29 10:54:32;;;;;;;26.63;5.15;;;;;;;10.12;100.00;100026.38;4995675;28;20038;-64
2022/12/29 10:57:02;;;;;;;17.38;4.20;;;;;;;9.77;100.00;99942.91;5013882;28;20104;-62
2022/12/29 10:59:32;;;;;;;18.88;4.05;;;;;;;10.12;100.00;100019.34;4996632;28;20025;-62
2022/12/29 11:02:10;;;;;;;13.60;3.95;;;;;;;10.33;100.00;100043.91;4996390;28;20046;-63
2022/12/29 11:04:45;;;;;;;19.73;4.70;;;;;;;10.10;100.00;100017.69;5013454;28;20092;-64
2022/12/29 11:07:12;;;;;;;16.13;3.92;;;;;;;10.25;100.00;100063.53;4989118;28;20113;-61
2022/12/29 11:09:39;;;;;;;18.83;4.53;;;;;;;9.78;100.00;99991.94;4984606;28;20034;-63
2022/12/29 11:12:25;;;;;;;15.93;3.55;;;;;;;9.88;100.00;100032.69;4995625;28;20045;-62
2022/12/29 11:15:20;;;;;;;21.50;4.07;;;;;;;10.15;100.00;100077.09;4996576;28;20026;-62
2022/12/29 11:17:51;;;;;;;16.08;3.53;;;;;;;9.97;100.00;100017.38;4985369;28;20437;-62
2022/12/29 11:20:33;;;;;;;18.25;4.30;;;;;;;10.24;100.00;100073.22;5013231;28;20037;-63
2022/12/29 11:22:59;;;;;;;12.95;3.25;;;;;;;9.89;100.00;100016.84;5013621;28;20034;-62
2022/12/29 11:25:25;;;;;;;16.00;3.67;;;;;;;10.16;100.00;100078.78;4996292;28;20126;-60
2022/12/29 11:28:15;;;;;;;14.27;3.50;;;;;;;10.06;100.00;100087.13;5012067;28;20034;-62
2022/12/29 11:30:41;;;;;;;14.13;2.67;;;;;;;9.93;100.00;100104.31;4993965;28;20054;-61
2022/12/29 11:33:08;;;;;;;18.00;3.10;;;;;;;9.82;100.00;100107.38;4995837;28;20038;-62
2022/12/29 11:35:42;;;;;;;13.68;3.40;;;;;;;9.45;100.00;100055.47;4980238;28;20029;-62
2022/12/29 11:38:19;;;;;;;14.30;4.43;;;;;;;9.38;100.00;100048.75;4992587;28;20501;-65
2022/12/29 11:40:45;;;;;;;17.63;3.90;;;;;;;9.63;100.00;100109.88;4992856;28;20474;-64
2022/12/29 11:43:30;;;;;;;15.77;3.63;;;;;;;9.61;100.00;100100.34;4992462;28;20100;-63
2022/12/29 11:45:56;;;;;;;15.20;3.70;;;;;;;9.13;100.00;100024.38;4994030;28;20030;-63
2022/12/29 11:48:22;;;;;;;15.65;3.45;;;;;;;9.30;100.00;100079.72;4993026;28;20034;-63
2022/12/29 11:50:53;;;;;;;14.90;3.83;;;;;;;9.36;100.00;100082.09;4975885;28;20034;-63
2022/12/29 11:53:37;;;;;;;19.08;3.10;;;;;;;9.52;100.00;100124.38;4974296;28;20508;-62
2022/12/29 11:56:06;;;;;;;10.90;3.08;;;;;;;9.53;100.00;100118.22;4990187;28;20462;-62
2022/12/29 11:58:33;;;;;;;15.25;3.22;;;;;;;9.57;100.00;100109.31;4991383;28;20034;-63
2022/12/29 12:01:11;;;;;;;8.10;2.58;;;;;;;9.66;100.00;100115.97;4996005;28;20492;-63
2022/12/29 12:03:40;;;;;;;10.73;2.80;;;;;;;9.64;100.00;100139.66;5012370;28;20121;-63
2022/12/29 12:06:07;;;;;;;12.98;2.90;;;;;;;9.61;100.00;100138.00;4979266;28;20065;-63
2022/12/29 12:08:54;;;;;;;12.70;3.47;;;;;;;9.57;100.00;100128.53;4992565;28;20116;-63
2022/12/29 12:11:35;;;;;;;12.35;3.40;;;;;;;9.54;100.00;100127.81;4996474;28;20061;-64